createdAt,value
2023-04-12T00:00:53.413Z,215.85
2023-04-12T00:01:57.737Z,124.93
2023-04-12T00:03:05.556Z,100.78
2023-04-12T00:04:09.204Z,141.38
2023-04-12T00:05:16.219Z,111.75
2023-04-12T00:06:21.993Z,113.10
2023-04-12T00:07:31.554Z,183.35
2023-04-12T00:08:37.150Z,101.80
2023-04-12T00:09:43.106Z,165.82
2023-04-12T00:10:46.834Z,170.00
2023-04-12T00:11:53.415Z,143.32
2023-04-12T00:12:56.894Z,95.93
2023-04-12T00:14:04.317Z,116.40
2023-04-12T00:15:12.097Z,95.05
2023-04-12T00:16:19.524Z,112.80
2023-04-12T00:17:23.125Z,97.28
2023-04-12T00:18:29.352Z,115.53
2023-04-12T00:19:37.767Z,96.97
2023-04-12T00:20:43.988Z,134.48
2023-04-12T00:21:47.803Z,141.73
2023-04-12T00:22:58.311Z,136.05
2023-04-12T00:24:01.666Z,110.40
2023-04-12T00:25:09.350Z,89.78
2023-04-12T00:26:13.567Z,153.52
2023-04-12T00:27:20.260Z,106.75
2023-04-12T00:28:24.584Z,133.77
2023-04-12T00:29:30.944Z,144.65
2023-04-12T00:30:35.421Z,101.05
2023-04-12T00:31:42.042Z,177.70
2023-04-12T00:32:46.151Z,159.57
2023-04-12T00:33:52.181Z,139.82
2023-04-12T00:34:55.206Z,137.63
2023-04-12T00:36:01.791Z,130.15
2023-04-12T00:37:05.590Z,107.13
2023-04-12T00:38:16.524Z,129.07
2023-04-12T00:39:23.272Z,107.13
2023-04-12T00:40:30.857Z,87.43
2023-04-12T00:41:34.651Z,98.43
2023-04-12T00:42:41.919Z,115.18
2023-04-12T00:43:45.912Z,144.15
2023-04-12T00:44:52.605Z,148.48
2023-04-12T00:45:58.706Z,122.20
2023-04-12T00:47:05.658Z,98.88
2023-04-12T00:48:09.293Z,81.55
2023-04-12T00:49:19.367Z,102.25
2023-04-12T00:50:26.159Z,90.88
2023-04-12T00:51:35.426Z,107.00
2023-04-12T00:52:43.502Z,162.93
2023-04-12T00:53:50.483Z,168.40
2023-04-12T00:54:58.288Z,155.13
2023-04-12T00:56:04.263Z,150.18
2023-04-12T00:57:10.862Z,130.10
2023-04-12T00:58:15.251Z,93.00
2023-04-12T00:59:21.715Z,159.38
2023-04-12T01:00:28.466Z,97.82
2023-04-12T01:01:33.861Z,104.55
2023-04-12T01:02:42.067Z,113.65
2023-04-12T01:03:46.422Z,142.95
2023-04-12T01:04:59.321Z,106.85
2023-04-12T01:06:15.704Z,104.38
2023-04-12T01:07:37.779Z,186.18
2023-04-12T01:08:53.377Z,137.30
2023-04-12T01:10:08.942Z,107.63
2023-04-12T01:11:19.858Z,128.50
2023-04-12T01:12:40.525Z,107.07
2023-04-12T01:13:55.415Z,190.55
2023-04-12T01:15:06.934Z,109.90
2023-04-12T01:16:21.040Z,120.53
2023-04-12T01:17:35.852Z,92.93
2023-04-12T01:18:43.167Z,107.03
2023-04-12T01:20:00.455Z,134.77
2023-04-12T01:21:08.637Z,106.82
2023-04-12T01:22:21.693Z,112.63
2023-04-12T01:23:44.312Z,101.78
2023-04-12T01:25:13.959Z,140.32
2023-04-12T01:26:33.907Z,129.20
2023-04-12T01:27:48.853Z,110.38
2023-04-12T01:28:55.401Z,117.00
2023-04-12T01:30:05.524Z,122.88
2023-04-12T01:31:10.339Z,89.05
2023-04-12T01:32:18.358Z,94.25
2023-04-12T01:33:23.868Z,100.20
2023-04-12T01:34:34.275Z,78.90
2023-04-12T01:35:39.827Z,96.10
2023-04-12T01:36:50.080Z,145.10
2023-04-12T01:37:57.397Z,144.85
2023-04-12T01:39:05.393Z,119.10
2023-04-12T01:40:10.319Z,119.20
2023-04-12T01:41:18.476Z,129.52
2023-04-12T01:42:22.971Z,107.65
2023-04-12T01:43:35.039Z,94.75
2023-04-12T01:44:38.643Z,106.32
2023-04-12T01:45:45.321Z,112.45
2023-04-12T01:46:49.612Z,153.05
2023-04-12T01:47:56.171Z,138.43
2023-04-12T01:49:00.176Z,97.20
2023-04-12T01:50:19.693Z,110.93
2023-04-12T01:51:36.257Z,88.80
2023-04-12T01:52:49.859Z,150.48
2023-04-12T01:54:01.814Z,157.52
2023-04-12T01:55:10.520Z,136.55
2023-04-12T01:56:14.754Z,110.68
2023-04-12T01:57:24.554Z,137.50
2023-04-12T01:58:32.349Z,365.17
2023-04-12T01:59:44.859Z,183.90
2023-04-12T02:00:49.640Z,181.98
2023-04-12T02:01:56.949Z,157.93
2023-04-12T02:03:01.399Z,123.00
2023-04-12T02:04:10.118Z,131.25
2023-04-12T02:05:14.352Z,132.07
2023-04-12T02:06:25.422Z,146.70
2023-04-12T02:07:29.464Z,151.63
2023-04-12T02:08:38.920Z,184.60
2023-04-12T02:09:43.469Z,148.95
2023-04-12T02:10:50.658Z,156.15
2023-04-12T02:11:55.157Z,177.52
2023-04-12T02:13:03.805Z,113.78
2023-04-12T02:14:10.946Z,128.73
2023-04-12T02:15:17.800Z,135.68
2023-04-12T02:16:24.033Z,112.95
2023-04-12T02:17:33.286Z,129.10
2023-04-12T02:18:37.324Z,136.00
2023-04-12T02:19:44.324Z,128.63
2023-04-12T02:20:47.972Z,141.75
2023-04-12T02:21:54.615Z,200.10
2023-04-12T02:22:58.098Z,148.40
2023-04-12T02:24:06.721Z,146.85
2023-04-12T02:25:11.230Z,147.80
2023-04-12T02:26:18.503Z,192.15
2023-04-12T02:27:22.931Z,139.73
2023-04-12T02:28:29.717Z,161.55
2023-04-12T02:29:37.075Z,206.80
2023-04-12T02:30:44.100Z,186.43
2023-04-12T02:31:49.090Z,184.43
2023-04-12T02:32:59.849Z,188.65
2023-04-12T02:34:04.501Z,199.77
2023-04-12T02:35:12.304Z,147.52
2023-04-12T02:36:16.758Z,151.50
2023-04-12T02:37:24.666Z,225.18
2023-04-12T02:38:31.950Z,147.02
2023-04-12T02:39:39.347Z,118.20
2023-04-12T02:40:46.010Z,202.52
2023-04-12T02:41:49.985Z,212.45
2023-04-12T02:42:58.870Z,216.50
2023-04-12T02:44:02.921Z,173.68
2023-04-12T02:45:15.957Z,121.30
2023-04-12T02:46:22.228Z,172.00
2023-04-12T02:47:29.763Z,167.82
2023-04-12T02:48:34.770Z,127.88
2023-04-12T02:49:40.780Z,178.50
2023-04-12T02:50:45.368Z,241.40
2023-04-12T02:51:52.042Z,192.27
2023-04-12T02:52:58.456Z,229.27
2023-04-12T02:54:04.717Z,174.00
2023-04-12T02:55:09.896Z,176.23
2023-04-12T02:56:19.939Z,168.90
2023-04-12T02:57:24.065Z,174.82
2023-04-12T02:58:30.604Z,161.38
2023-04-12T02:59:34.445Z,248.68
2023-04-12T03:00:44.777Z,111.88
2023-04-12T03:01:48.330Z,120.30
2023-04-12T03:02:56.533Z,135.00
2023-04-12T03:03:59.908Z,103.28
2023-04-12T03:05:09.171Z,112.00
2023-04-12T03:06:16.691Z,119.00
2023-04-12T03:07:20.781Z,115.47
2023-04-12T03:08:27.554Z,144.30
2023-04-12T03:09:32.963Z,102.30
2023-04-12T03:10:39.476Z,90.35
2023-04-12T03:11:42.897Z,115.78
2023-04-12T03:12:48.936Z,107.50
2023-04-12T03:13:53.120Z,105.93
2023-04-12T03:14:59.204Z,120.47
2023-04-12T03:16:22.888Z,92.25
2023-04-12T03:17:29.211Z,86.55
2023-04-12T03:18:32.636Z,101.45
2023-04-12T03:19:39.243Z,106.43
2023-04-12T03:20:47.310Z,130.15
2023-04-12T03:21:54.194Z,165.93
2023-04-12T03:22:57.798Z,149.48
2023-04-12T03:24:05.047Z,119.10
2023-04-12T03:25:10.432Z,108.78
2023-04-12T03:26:17.801Z,118.60
2023-04-12T03:27:21.008Z,115.45
2023-04-12T03:28:27.047Z,113.50
2023-04-12T03:29:30.980Z,113.78
2023-04-12T03:30:37.958Z,91.88
2023-04-12T03:31:44.150Z,107.60
2023-04-12T03:32:53.876Z,146.25
2023-04-12T03:33:57.984Z,123.13
2023-04-12T03:35:05.327Z,93.35
2023-04-12T03:36:12.972Z,119.05
2023-04-12T03:37:16.660Z,93.65
2023-04-12T03:38:24.063Z,111.25
2023-04-12T03:39:27.589Z,114.90
2023-04-12T03:40:34.873Z,92.35
2023-04-12T03:41:38.652Z,115.97
2023-04-12T03:42:45.051Z,167.52
2023-04-12T03:43:48.430Z,139.02
2023-04-12T03:44:55.546Z,146.57
2023-04-12T03:45:59.126Z,167.30
2023-04-12T03:47:08.712Z,96.82
2023-04-12T03:48:17.168Z,108.75
2023-04-12T03:49:23.079Z,121.35
2023-04-12T03:50:26.177Z,135.85
2023-04-12T03:51:32.401Z,113.78
2023-04-12T03:52:35.652Z,101.68
2023-04-12T03:53:42.619Z,158.43
2023-04-12T03:54:47.697Z,123.15
2023-04-12T03:55:54.456Z,100.32
2023-04-12T03:56:58.538Z,141.80
2023-04-12T03:58:05.160Z,93.85
2023-04-12T03:59:08.991Z,78.40
2023-04-12T04:00:17.182Z,103.40
2023-04-12T04:01:21.894Z,95.57
2023-04-12T04:02:33.169Z,91.60
2023-04-12T04:03:37.204Z,82.57
2023-04-12T04:04:46.806Z,92.35
2023-04-12T04:05:51.611Z,141.13
2023-04-12T04:06:58.406Z,128.25
2023-04-12T04:08:03.232Z,103.70
2023-04-12T04:09:09.774Z,114.65
2023-04-12T04:10:13.838Z,110.93
2023-04-12T04:11:20.444Z,113.05
2023-04-12T04:12:23.878Z,110.03
2023-04-12T04:13:29.953Z,108.18
2023-04-12T04:14:35.867Z,78.30
2023-04-12T04:15:48.432Z,63.15
2023-04-12T04:16:52.698Z,75.25
2023-04-12T04:18:02.501Z,134.00
2023-04-12T04:19:05.996Z,66.55
2023-04-12T04:20:14.408Z,51.20
2023-04-12T04:21:18.574Z,65.35
2023-04-12T04:22:25.098Z,50.40
2023-04-12T04:23:31.222Z,68.63
2023-04-12T04:24:39.772Z,54.00
2023-04-12T04:25:43.029Z,77.70
2023-04-12T04:26:51.028Z,113.28
2023-04-12T04:27:54.562Z,96.28
2023-04-12T04:29:02.707Z,108.00
2023-04-12T04:30:07.296Z,75.20
2023-04-12T04:31:18.351Z,66.85
2023-04-12T04:32:22.062Z,68.22
2023-04-12T04:33:31.523Z,63.80
2023-04-12T04:34:35.236Z,77.80
2023-04-12T04:35:44.328Z,74.20
2023-04-12T04:36:47.691Z,87.97
2023-04-12T04:37:54.312Z,107.82
2023-04-12T04:38:58.473Z,79.75
2023-04-12T04:40:09.457Z,48.63
2023-04-12T04:41:13.190Z,69.47
2023-04-12T04:42:19.409Z,58.28
2023-04-12T04:43:23.509Z,51.22
2023-04-12T04:44:30.879Z,68.15
2023-04-12T04:45:38.328Z,61.83
2023-04-12T04:46:45.854Z,73.95
2023-04-12T04:47:49.596Z,84.10
2023-04-12T04:48:59.719Z,92.57
2023-04-12T04:50:03.571Z,80.65
2023-04-12T04:51:10.125Z,68.53
2023-04-12T04:52:14.329Z,101.93
2023-04-12T04:53:22.857Z,72.25
2023-04-12T04:54:26.350Z,78.78
2023-04-12T04:55:32.935Z,94.68
2023-04-12T04:56:37.109Z,92.07
2023-04-12T04:57:46.049Z,99.50
2023-04-12T04:58:50.017Z,115.28
2023-04-12T04:59:56.062Z,104.97
2023-04-12T05:01:00.227Z,99.68
2023-04-12T05:02:07.248Z,86.43
2023-04-12T05:03:11.008Z,34.45
2023-04-12T05:04:19.874Z,58.65
2023-04-12T05:05:23.866Z,64.50
2023-04-12T05:06:31.836Z,44.88
2023-04-12T05:07:35.805Z,66.70
2023-04-12T05:08:45.832Z,60.10
2023-04-12T05:09:52.786Z,92.80
2023-04-12T05:10:57.162Z,114.68
2023-04-12T05:12:03.340Z,62.08
2023-04-12T05:13:07.556Z,72.55
2023-04-12T05:14:13.910Z,140.02
2023-04-12T05:15:17.875Z,85.70
2023-04-12T05:16:24.963Z,91.07
2023-04-12T05:17:28.984Z,169.50
2023-04-12T05:18:35.367Z,79.95
2023-04-12T05:19:44.217Z,89.75
2023-04-12T05:20:51.193Z,113.70
2023-04-12T05:21:54.614Z,108.05
2023-04-12T05:23:01.145Z,120.45
2023-04-12T05:24:05.764Z,75.90
2023-04-12T05:25:15.044Z,66.07
2023-04-12T05:26:18.871Z,58.80
2023-04-12T05:27:25.203Z,84.63
2023-04-12T05:28:28.545Z,56.22
2023-04-12T05:29:35.785Z,69.20
2023-04-12T05:30:40.734Z,74.57
2023-04-12T05:31:48.538Z,134.27
2023-04-12T05:32:56.682Z,137.48
2023-04-12T05:34:02.716Z,96.68
2023-04-12T05:35:12.669Z,60.17
2023-04-12T05:36:19.163Z,90.07
2023-04-12T05:37:26.108Z,72.45
2023-04-12T05:38:32.350Z,79.82
2023-04-12T05:39:36.265Z,89.70
2023-04-12T05:40:44.695Z,105.13
2023-04-12T05:41:48.098Z,128.95
2023-04-12T05:42:56.373Z,139.18
2023-04-12T05:44:04.055Z,111.53
2023-04-12T05:45:08.383Z,84.63
2023-04-12T05:46:15.278Z,68.65
2023-04-12T05:47:18.513Z,85.95
2023-04-12T05:48:25.603Z,50.83
2023-04-12T05:49:31.328Z,46.03
2023-04-12T05:50:40.545Z,83.97
2023-04-12T05:51:44.463Z,74.72
2023-04-12T05:52:51.495Z,106.07
2023-04-12T05:53:55.479Z,104.60
2023-04-12T05:55:01.659Z,102.35
2023-04-12T05:56:05.538Z,77.47
2023-04-12T05:57:13.272Z,67.63
2023-04-12T05:58:17.738Z,73.18
2023-04-12T05:59:24.610Z,75.10
2023-04-12T06:00:31.839Z,116.32
2023-04-12T06:01:37.673Z,114.80
2023-04-12T06:02:43.712Z,107.30
2023-04-12T06:03:50.018Z,184.57
2023-04-12T06:04:54.405Z,154.13
2023-04-12T06:06:04.696Z,142.38
2023-04-12T06:07:12.010Z,74.57
2023-04-12T06:08:15.682Z,86.15
2023-04-12T06:09:22.360Z,78.20
2023-04-12T06:10:25.811Z,61.90
2023-04-12T06:11:32.342Z,68.00
2023-04-12T06:12:36.566Z,94.25
2023-04-12T06:13:43.550Z,65.57
2023-04-12T06:14:47.133Z,127.05
2023-04-12T06:15:53.591Z,114.43
2023-04-12T06:16:57.513Z,88.30
2023-04-12T06:18:04.009Z,100.70
2023-04-12T06:19:07.789Z,87.57
2023-04-12T06:20:16.051Z,87.38
2023-04-12T06:21:23.184Z,88.75
2023-04-12T06:22:30.137Z,74.70
2023-04-12T06:23:37.933Z,73.60
2023-04-12T06:24:46.879Z,78.25
2023-04-12T06:25:53.884Z,172.70
2023-04-12T06:26:57.433Z,104.75
2023-04-12T06:28:04.571Z,141.15
2023-04-12T06:29:08.085Z,80.38
2023-04-12T06:30:15.252Z,82.15
2023-04-12T06:31:19.420Z,108.82
2023-04-12T06:32:26.089Z,72.57
2023-04-12T06:33:32.611Z,53.58
2023-04-12T06:34:35.656Z,96.95
2023-04-12T06:35:44.929Z,75.28
2023-04-12T06:36:57.910Z,93.63
2023-04-12T06:38:01.052Z,101.80
2023-04-12T06:39:09.865Z,107.03
2023-04-12T06:40:13.181Z,69.03
2023-04-12T06:41:19.982Z,86.05
2023-04-12T06:42:24.276Z,92.25
2023-04-12T06:43:31.041Z,56.25
2023-04-12T06:44:35.095Z,70.57
2023-04-12T06:45:42.283Z,73.05
2023-04-12T06:46:45.889Z,91.68
2023-04-12T06:47:58.040Z,132.18
2023-04-12T06:49:03.999Z,127.43
2023-04-12T06:50:11.184Z,73.38
2023-04-12T06:51:14.570Z,71.55
2023-04-12T06:52:23.387Z,58.58
2023-04-12T06:53:28.009Z,68.53
2023-04-12T06:54:34.191Z,90.47
2023-04-12T06:55:42.965Z,87.47
2023-04-12T06:56:48.952Z,120.28
2023-04-12T06:57:54.536Z,132.10
2023-04-12T06:58:57.765Z,114.10
2023-04-12T07:00:03.968Z,161.40
2023-04-12T07:01:09.298Z,79.28
2023-04-12T07:02:16.009Z,115.32
2023-04-12T07:03:25.142Z,98.93
2023-04-12T07:04:33.293Z,83.10
2023-04-12T07:05:42.833Z,139.25
2023-04-12T07:06:49.353Z,158.38
2023-04-12T07:07:58.398Z,168.10
2023-04-12T07:09:02.437Z,149.50
2023-04-12T07:10:09.840Z,117.20
2023-04-12T07:11:20.914Z,100.38
2023-04-12T07:12:30.027Z,89.38
2023-04-12T07:13:37.033Z,85.63
2023-04-12T07:14:44.719Z,116.45
2023-04-12T07:15:52.682Z,109.85
2023-04-12T07:16:56.210Z,115.75
2023-04-12T07:18:02.711Z,136.93
2023-04-12T07:19:06.384Z,95.45
2023-04-12T07:20:13.579Z,79.13
2023-04-12T07:21:20.748Z,85.00
2023-04-12T07:22:24.305Z,77.32
2023-04-12T07:23:34.623Z,98.80
2023-04-12T07:24:38.365Z,70.70
2023-04-12T07:25:44.301Z,64.95
2023-04-12T07:26:50.175Z,92.13
2023-04-12T07:27:53.819Z,133.38
2023-04-12T07:29:00.318Z,248.60
2023-04-12T07:30:08.042Z,90.22
2023-04-12T07:31:12.039Z,83.88
2023-04-12T07:32:17.791Z,102.97
2023-04-12T07:33:20.868Z,71.03
2023-04-12T07:34:28.081Z,68.78
2023-04-12T07:35:31.972Z,120.88
2023-04-12T07:36:38.308Z,50.13
2023-04-12T07:37:41.325Z,87.78
2023-04-12T07:38:56.097Z,103.93
2023-04-12T07:40:02.937Z,90.60
2023-04-12T07:41:06.612Z,75.32
2023-04-12T07:42:13.004Z,62.72
2023-04-12T07:43:17.686Z,49.45
2023-04-12T07:44:23.515Z,61.30
2023-04-12T07:45:29.939Z,50.35
2023-04-12T07:46:34.661Z,68.25
2023-04-12T07:47:41.271Z,56.63
2023-04-12T07:48:45.973Z,92.45
2023-04-12T07:49:52.130Z,108.97
2023-04-12T07:50:55.446Z,104.03
2023-04-12T07:52:00.943Z,142.15
2023-04-12T07:53:19.931Z,92.78
2023-04-12T07:54:31.883Z,109.07
2023-04-12T07:55:35.070Z,110.80
2023-04-12T07:56:41.096Z,126.93
2023-04-12T07:57:47.156Z,106.03
2023-04-12T07:58:50.807Z,119.63
2023-04-12T07:59:58.079Z,133.20
2023-04-12T08:01:03.883Z,137.50
2023-04-12T08:02:07.142Z,109.40
2023-04-12T08:03:15.193Z,92.25
2023-04-12T08:04:21.845Z,118.25
2023-04-12T08:05:25.758Z,97.47
2023-04-12T08:06:34.665Z,112.75
2023-04-12T08:07:38.369Z,103.30
2023-04-12T08:08:45.484Z,160.98
2023-04-12T08:09:54.914Z,130.07
2023-04-12T08:10:58.585Z,173.93
2023-04-12T08:12:06.163Z,147.20
2023-04-12T08:13:09.722Z,131.90
2023-04-12T08:14:15.986Z,101.88
2023-04-12T08:15:19.569Z,81.65
2023-04-12T08:16:25.636Z,139.95
2023-04-12T08:17:33.690Z,94.65
2023-04-12T08:18:37.224Z,96.13
2023-04-12T08:19:44.792Z,77.78
2023-04-12T08:20:51.360Z,104.07
2023-04-12T08:21:58.245Z,113.78
2023-04-12T08:23:05.310Z,119.55
2023-04-12T08:24:16.191Z,75.35
2023-04-12T08:25:24.029Z,87.85
2023-04-12T08:26:35.834Z,81.40
2023-04-12T08:27:58.518Z,90.22
2023-04-12T08:29:06.937Z,136.52
2023-04-12T08:30:15.835Z,103.18
2023-04-12T08:31:23.005Z,104.43
2023-04-12T08:32:27.386Z,83.75
2023-04-12T08:33:33.520Z,73.80
2023-04-12T08:34:38.839Z,79.13
2023-04-12T08:35:50.059Z,89.10
2023-04-12T08:36:53.717Z,83.75
2023-04-12T08:38:00.991Z,122.00
2023-04-12T08:39:08.048Z,117.80
2023-04-12T08:40:11.805Z,90.05
2023-04-12T08:41:22.422Z,74.90
2023-04-12T08:42:27.621Z,77.15
2023-04-12T08:43:36.040Z,80.78
2023-04-12T08:44:43.829Z,98.07
2023-04-12T08:45:50.503Z,119.28
2023-04-12T08:46:53.967Z,111.25
2023-04-12T08:47:58.906Z,173.02
2023-04-12T08:49:01.264Z,150.63
2023-04-12T08:50:09.636Z,135.20
2023-04-12T08:51:14.604Z,107.10
2023-04-12T08:52:23.415Z,123.43
2023-04-12T08:53:29.152Z,95.03
2023-04-12T08:54:31.936Z,61.63
2023-04-12T08:55:37.654Z,73.20
2023-04-12T08:56:45.199Z,114.78
2023-04-12T08:57:52.864Z,79.72
2023-04-12T08:58:59.975Z,85.90
2023-04-12T09:00:04.230Z,162.43
2023-04-12T09:01:14.571Z,59.72
2023-04-12T09:02:19.989Z,103.30
2023-04-12T09:03:25.813Z,80.70
2023-04-12T09:04:28.566Z,80.80
2023-04-12T09:05:34.569Z,113.70
2023-04-12T09:06:37.405Z,133.38
2023-04-12T09:07:42.905Z,112.72
2023-04-12T09:08:55.751Z,59.22
2023-04-12T09:10:02.556Z,125.53
2023-04-12T09:11:25.436Z,85.22
2023-04-12T09:12:31.011Z,77.18
2023-04-12T09:13:37.613Z,54.45
2023-04-12T09:14:44.012Z,96.10
2023-04-12T09:15:53.893Z,100.15
2023-04-12T09:16:57.165Z,134.00
2023-04-12T09:18:12.762Z,120.93
2023-04-12T09:19:17.514Z,67.63
2023-04-12T09:20:29.044Z,83.97
2023-04-12T09:21:36.717Z,84.47
2023-04-12T09:22:45.882Z,100.40
2023-04-12T09:24:13.309Z,140.40
2023-04-12T09:25:19.949Z,102.22
2023-04-12T09:26:31.780Z,91.30
2023-04-12T09:27:53.364Z,124.13
2023-04-12T09:29:02.408Z,106.05
2023-04-12T09:30:14.272Z,89.85
2023-04-12T09:31:20.518Z,78.10
2023-04-12T09:32:27.713Z,92.03
2023-04-12T09:33:41.011Z,88.00
2023-04-12T09:35:03.186Z,94.82
2023-04-12T09:36:14.972Z,91.50
2023-04-12T09:37:21.222Z,78.32
2023-04-12T09:38:27.236Z,94.15
2023-04-12T09:39:38.756Z,68.22
2023-04-12T09:40:44.213Z,99.53
2023-04-12T09:41:50.497Z,80.60
2023-04-12T09:42:57.502Z,103.93
2023-04-12T09:44:03.561Z,68.00
2023-04-12T09:45:21.360Z,61.47
2023-04-12T09:46:26.477Z,99.72
2023-04-12T09:47:41.553Z,157.68
2023-04-12T09:48:54.210Z,85.68
2023-04-12T09:49:57.911Z,118.57
2023-04-12T09:51:05.306Z,133.60
2023-04-12T09:52:11.812Z,108.05
2023-04-12T09:53:20.407Z,83.47
2023-04-12T09:54:24.575Z,99.90
2023-04-12T09:55:32.798Z,97.55
2023-04-12T09:56:43.418Z,98.40
2023-04-12T09:57:49.632Z,89.10
2023-04-12T09:58:58.214Z,129.73
2023-04-12T10:00:13.010Z,190.40
2023-04-12T10:01:18.272Z,102.60
2023-04-12T10:02:32.351Z,94.78
2023-04-12T10:03:40.115Z,83.20
2023-04-12T10:04:47.265Z,86.40
2023-04-12T10:05:53.955Z,125.97
2023-04-12T10:06:57.450Z,99.82
2023-04-12T10:08:05.267Z,140.85
2023-04-12T10:09:15.221Z,100.05
2023-04-12T10:10:20.448Z,123.03
2023-04-12T10:11:28.009Z,110.03
2023-04-12T10:12:32.353Z,99.65
2023-04-12T10:13:44.516Z,104.80
2023-04-12T10:14:52.883Z,84.32
2023-04-12T10:16:00.817Z,112.00
2023-04-12T10:17:09.090Z,124.32
2023-04-12T10:18:18.458Z,82.43
2023-04-12T10:19:26.052Z,64.80
2023-04-12T10:20:36.035Z,108.78
2023-04-12T10:21:39.613Z,94.63
2023-04-12T10:22:46.897Z,99.15
2023-04-12T10:23:50.801Z,124.53
2023-04-12T10:24:57.125Z,146.80
2023-04-12T10:26:08.480Z,136.38
2023-04-12T10:27:17.442Z,74.60
2023-04-12T10:28:25.040Z,65.15
2023-04-12T10:29:29.548Z,65.75
2023-04-12T10:30:39.159Z,59.45
2023-04-12T10:31:42.922Z,83.18
2023-04-12T10:32:49.347Z,64.03
2023-04-12T10:33:59.221Z,106.05
2023-04-12T10:35:06.829Z,84.82
2023-04-12T10:36:17.046Z,57.90
2023-04-12T10:37:21.018Z,43.30
2023-04-12T10:38:34.555Z,99.22
2023-04-12T10:39:42.143Z,72.38
2023-04-12T10:41:17.438Z,93.40
2023-04-12T10:42:24.434Z,72.88
2023-04-12T10:43:30.979Z,103.97
2023-04-12T10:44:37.367Z,71.40
2023-04-12T10:45:47.818Z,84.95
2023-04-12T10:46:51.742Z,144.05
2023-04-12T10:48:07.137Z,131.70
2023-04-12T10:49:11.114Z,120.40
2023-04-12T10:50:30.653Z,107.85
2023-04-12T10:51:34.402Z,98.05
2023-04-12T10:52:42.392Z,104.30
2023-04-12T10:53:49.343Z,137.38
2023-04-12T10:54:56.415Z,123.03
2023-04-12T10:55:59.732Z,142.93
2023-04-12T10:57:33.023Z,158.00
2023-04-12T10:59:04.133Z,115.65
2023-04-12T11:00:10.054Z,151.88
2023-04-12T11:01:19.748Z,107.20
2023-04-12T11:02:26.531Z,91.65
2023-04-12T11:03:31.600Z,77.20
2023-04-12T11:04:39.743Z,87.63
2023-04-12T11:05:59.207Z,94.03
2023-04-12T11:07:07.376Z,162.82
2023-04-12T11:08:13.958Z,128.82
2023-04-12T11:09:26.006Z,116.93
2023-04-12T11:10:33.474Z,79.85
2023-04-12T11:11:39.671Z,112.18
2023-04-12T11:12:47.185Z,102.72
2023-04-12T11:13:57.479Z,126.90
2023-04-12T11:15:07.257Z,127.00
2023-04-12T11:16:13.617Z,90.93
2023-04-12T11:17:30.163Z,101.18
2023-04-12T11:18:34.987Z,140.32
2023-04-12T11:19:42.923Z,148.95
2023-04-12T11:20:50.463Z,183.50
2023-04-12T11:21:55.465Z,141.30
2023-04-12T11:23:02.723Z,119.22
2023-04-12T11:24:07.118Z,118.00
2023-04-12T11:25:14.234Z,92.18
2023-04-12T11:26:26.021Z,105.30
2023-04-12T11:27:33.509Z,129.55
2023-04-12T11:28:40.531Z,117.38
2023-04-12T11:29:44.373Z,185.02
2023-04-12T11:30:56.343Z,133.38
2023-04-12T11:32:00.659Z,142.50
2023-04-12T11:33:10.326Z,178.98
2023-04-12T11:34:16.016Z,153.48
2023-04-12T11:35:27.994Z,141.63
2023-04-12T11:36:32.390Z,151.25
2023-04-12T11:37:39.239Z,160.85
2023-04-12T11:38:43.603Z,108.63
2023-04-12T11:39:51.196Z,162.93
2023-04-12T11:40:58.668Z,140.15
2023-04-12T11:42:04.781Z,131.85
2023-04-12T11:43:12.085Z,110.53
2023-04-12T11:44:18.970Z,118.40
2023-04-12T11:45:30.298Z,92.43
2023-04-12T11:46:38.644Z,107.97
2023-04-12T11:47:48.436Z,129.43
2023-04-12T11:48:57.836Z,127.97
2023-04-12T11:50:06.086Z,167.60
2023-04-12T11:51:25.765Z,133.85
2023-04-12T11:52:36.824Z,117.13
2023-04-12T11:53:40.768Z,110.30
2023-04-12T11:54:51.225Z,101.20
2023-04-12T11:55:56.627Z,124.85
2023-04-12T11:57:05.079Z,136.80
2023-04-12T11:58:12.206Z,99.05
2023-04-12T11:59:17.588Z,86.55
2023-04-12T12:00:31.857Z,90.32
2023-04-12T12:01:39.492Z,128.65
2023-04-12T12:03:03.760Z,137.00
2023-04-12T12:04:17.072Z,88.20
2023-04-12T12:05:24.303Z,133.38
2023-04-12T12:06:36.491Z,102.28
2023-04-12T12:07:43.822Z,115.95
2023-04-12T12:08:51.156Z,98.53
2023-04-12T12:09:58.351Z,141.23
2023-04-12T12:11:07.683Z,165.73
2023-04-12T12:12:15.345Z,138.43
2023-04-12T12:13:19.334Z,127.63
2023-04-12T12:14:30.156Z,144.70
2023-04-12T12:15:34.892Z,94.55
2023-04-12T12:16:42.223Z,141.07
2023-04-12T12:17:49.373Z,128.80
2023-04-12T12:18:53.190Z,120.35
2023-04-12T12:20:05.613Z,159.88
2023-04-12T12:21:11.001Z,145.63
2023-04-12T12:22:18.814Z,109.15
2023-04-12T12:23:32.321Z,160.93
2023-04-12T12:24:42.051Z,84.13
2023-04-12T12:25:50.658Z,199.00
2023-04-12T12:26:53.580Z,227.25
2023-04-12T12:28:04.105Z,187.13
2023-04-12T12:29:09.707Z,264.60
2023-04-12T12:30:16.018Z,178.55
2023-04-12T12:31:20.843Z,143.13
2023-04-12T12:32:28.780Z,132.63
2023-04-12T12:33:45.731Z,169.45
2023-04-12T12:35:02.346Z,132.80
2023-04-12T12:36:05.824Z,153.18
2023-04-12T12:37:14.865Z,109.30
2023-04-12T12:38:20.287Z,111.70
2023-04-12T12:39:24.106Z,151.48
2023-04-12T12:40:33.414Z,124.05
2023-04-12T12:41:36.942Z,143.85
2023-04-12T12:42:50.551Z,153.23
2023-04-12T12:43:54.383Z,141.32
2023-04-12T12:45:00.534Z,143.00
2023-04-12T12:46:06.246Z,158.88
2023-04-12T12:47:14.303Z,119.38
2023-04-12T12:48:21.985Z,115.10
2023-04-12T12:49:24.933Z,127.85
2023-04-12T12:50:37.687Z,136.18
2023-04-12T12:51:43.835Z,109.95
2023-04-12T12:52:54.031Z,115.45
2023-04-12T12:54:00.304Z,148.45
2023-04-12T12:55:03.887Z,121.70
2023-04-12T12:56:12.259Z,130.88
2023-04-12T12:57:15.992Z,113.30
2023-04-12T12:58:22.540Z,139.25
2023-04-12T12:59:27.374Z,142.52
2023-04-12T13:00:34.241Z,145.90
2023-04-12T13:01:37.912Z,172.43
2023-04-12T13:02:44.672Z,137.85
2023-04-12T13:03:51.225Z,146.32
2023-04-12T13:04:58.600Z,253.70
2023-04-12T13:06:09.368Z,152.60
2023-04-12T13:07:13.438Z,113.30
2023-04-12T13:08:19.838Z,116.90
2023-04-12T13:09:26.457Z,164.50
2023-04-12T13:10:32.223Z,117.05
2023-04-12T13:11:34.942Z,144.82
2023-04-12T13:12:42.362Z,177.45
2023-04-12T13:13:46.284Z,135.40
2023-04-12T13:15:17.520Z,117.57
2023-04-12T13:16:27.292Z,183.90
2023-04-12T13:17:30.606Z,206.80
2023-04-12T13:18:36.292Z,164.63
2023-04-12T13:19:38.603Z,158.27
2023-04-12T13:20:43.770Z,160.00
2023-04-12T13:21:50.516Z,156.38
2023-04-12T13:22:56.927Z,160.35
2023-04-12T13:23:59.078Z,173.77
2023-04-12T13:25:04.427Z,175.82
2023-04-12T13:26:07.527Z,332.23
2023-04-12T13:27:15.033Z,276.00
2023-04-12T13:28:17.641Z,224.63
2023-04-12T13:29:22.584Z,247.50
2023-04-12T13:30:24.807Z,204.82
2023-04-12T13:31:30.044Z,205.18
2023-04-12T13:32:32.400Z,214.32
2023-04-12T13:33:38.873Z,199.93
2023-04-12T13:34:41.279Z,227.25
2023-04-12T13:35:46.264Z,224.70
2023-04-12T13:36:51.435Z,211.98
2023-04-12T13:37:56.274Z,211.82
2023-04-12T13:38:58.751Z,295.52
2023-04-12T13:40:03.919Z,250.38
2023-04-12T13:41:09.172Z,250.02
2023-04-12T13:42:11.275Z,244.43
2023-04-12T13:43:16.970Z,182.88
2023-04-12T13:44:19.474Z,207.23
2023-04-12T13:45:24.767Z,250.70
2023-04-12T13:46:26.984Z,203.30
2023-04-12T13:47:32.048Z,234.45
2023-04-12T13:48:36.870Z,229.38
2023-04-12T13:49:38.951Z,198.82
2023-04-12T13:50:43.791Z,228.10
2023-04-12T13:51:45.994Z,219.75
2023-04-12T13:52:53.838Z,217.82
2023-04-12T13:53:56.214Z,225.98
2023-04-12T13:55:01.227Z,255.75
2023-04-12T13:56:03.377Z,235.68
2023-04-12T13:57:08.608Z,518.55
2023-04-12T13:58:10.787Z,183.95
2023-04-12T13:59:15.681Z,193.38
2023-04-12T14:00:23.148Z,173.63
2023-04-12T14:01:28.171Z,200.63
2023-04-12T14:02:31.687Z,184.68
2023-04-12T14:03:37.033Z,175.27
2023-04-12T14:04:53.719Z,198.70
2023-04-12T14:05:56.309Z,213.25
2023-04-12T14:07:02.301Z,211.75
2023-04-12T14:08:07.300Z,201.07